PAEH

Details ICAO PAEH (EHM)
Name CAPE NEWENHAM LRRS
Region USA (Alaska)
Timezone America/Nome (UTC-8.0)
Plans Departing 2
Arriving 5
Stats Elevation 541 ft / 165 m (AMSL)
Location 58.646428° -162.062778°
Runways 1
Magnetic Variation 11.130° E
Sunrise 2018-05-21 14:08:26 UTC / 2018-05-21 06:08:26 Local
Sunset 2018-05-22 07:24:10 UTC / 2018-05-21 23:24:10 Local
Advertisement - Login to hide

Runways

ID Width Length Bearing (true) Bearing (mag) Surface Threshold Offset Overrun Length
14 150 ft / 46 m 3,944 ft / 1,202 m 162.03° 150.90° Gravel 0 ft / 0 m 0 ft / 0 m
32 150 ft / 46 m 3,944 ft / 1,202 m 342.03° 330.90° Gravel 0 ft / 0 m 0 ft / 0 m

Map

Weather


0- 5 10 15 20 25 30 35+ Temperature / ° C

Clouds and Precipitation
Forecast for 2018-05-21 18:00 UTC. Updated 11 minutes ago

Ground ~20,000 ft ~40,000 ft Winds

METAR

PAEH 211730Z AUTO 34015KT 290V350 10SM OVC002 04/04 A2951

TAF

Not found

Frequencies

Unicom 126.20 MHz CTAF/UNICOM
Warning: Do not use this data for real-world aviation or navigation. No guarantee of current accuracy is given.